createdAt,value
2023-03-12T00:01:34.164Z,-0.94
2023-03-12T00:08:02.206Z,-0.96
2023-03-12T00:14:17.608Z,-1.00
2023-03-12T00:20:29.956Z,-1.13
2023-03-12T00:26:17.842Z,-1.26
2023-03-12T00:32:22.500Z,-1.34
2023-03-12T00:38:20.019Z,-1.45
2023-03-12T00:45:02.760Z,-1.58
2023-03-12T00:51:27.948Z,-1.72
2023-03-12T00:57:45.484Z,-1.82
2023-03-12T01:03:59.332Z,-1.87
2023-03-12T01:09:55.620Z,-1.96
2023-03-12T01:15:58.610Z,-2.00
2023-03-12T01:21:09.428Z,-2.05
2023-03-12T01:27:11.623Z,-2.11
2023-03-12T01:32:52.458Z,-2.14
2023-03-12T01:39:27.308Z,-2.20
2023-03-12T01:46:09.941Z,-2.25
2023-03-12T01:53:27.861Z,-2.27
2023-03-12T02:00:22.755Z,-2.32
2023-03-12T02:06:57.957Z,-2.35
2023-03-12T02:13:46.914Z,-2.38
2023-03-12T02:20:58.801Z,-2.44
2023-03-12T02:27:37.459Z,-2.46
2023-03-12T02:34:19.857Z,-2.50
2023-03-12T02:41:35.830Z,-2.60
2023-03-12T02:48:16.826Z,-2.62
2023-03-12T02:54:53.311Z,-2.65
2023-03-12T03:01:57.241Z,-2.70
2023-03-12T03:08:30.161Z,-2.74
2023-03-12T03:14:48.205Z,-2.76
2023-03-12T03:21:35.592Z,-2.80
2023-03-12T03:28:24.091Z,-2.76
2023-03-12T03:34:31.794Z,-2.75
2023-03-12T03:40:17.586Z,-2.75
2023-03-12T03:46:30.392Z,-2.73
2023-03-12T03:53:13.029Z,-2.76
2023-03-12T04:00:15.832Z,-2.78
2023-03-12T04:07:18.771Z,-2.82
2023-03-12T04:14:05.030Z,-2.81
2023-03-12T04:20:39.136Z,-2.81
2023-03-12T04:27:39.341Z,-2.79
2023-03-12T04:34:32.981Z,-2.84
2023-03-12T04:41:21.123Z,-2.83
2023-03-12T04:48:12.442Z,-2.85
2023-03-12T04:55:07.649Z,-2.86
2023-03-12T05:02:14.390Z,-2.88
2023-03-12T05:08:58.421Z,-2.88
2023-03-12T05:16:01.390Z,-2.87
2023-03-12T05:22:57.696Z,-2.87
2023-03-12T05:29:54.097Z,-2.79
2023-03-12T05:36:43.618Z,-2.71
2023-03-12T05:43:46.573Z,-2.58
2023-03-12T05:50:49.386Z,-2.47
2023-03-12T05:57:54.690Z,-2.33
2023-03-12T06:04:13.956Z,-2.02
2023-03-12T06:10:50.644Z,-1.81
2023-03-12T06:17:54.103Z,-1.62
2023-03-12T06:24:39.780Z,-1.64
2023-03-12T06:31:42.634Z,-1.13
2023-03-12T06:38:26.908Z,-0.76
2023-03-12T06:45:03.367Z,-0.54
2023-03-12T06:51:46.044Z,-0.64
2023-03-12T06:57:40.040Z,-0.77
2023-03-12T07:03:57.972Z,-0.74
2023-03-12T07:10:29.753Z,-0.25
2023-03-12T07:17:05.009Z,1.21
2023-03-12T07:23:57.798Z,2.92
2023-03-12T07:31:00.568Z,4.01
2023-03-12T07:37:53.816Z,4.42
2023-03-12T07:45:16.431Z,4.87
2023-03-12T07:52:19.918Z,5.12
2023-03-12T07:59:22.685Z,4.95
2023-03-12T08:06:04.400Z,5.13
2023-03-12T08:12:44.288Z,5.75
2023-03-12T08:19:21.522Z,6.55
2023-03-12T08:25:14.286Z,6.34
2023-03-12T08:31:36.254Z,6.60
2023-03-12T08:38:00.443Z,7.55
2023-03-12T08:43:47.241Z,8.31
2023-03-12T08:49:50.088Z,8.79
2023-03-12T08:56:18.998Z,8.53
2023-03-12T09:02:55.590Z,8.74
2023-03-12T09:10:18.268Z,9.32
2023-03-12T09:17:12.181Z,9.94
2023-03-12T09:23:00.421Z,10.06
2023-03-12T09:29:22.840Z,9.46
2023-03-12T09:35:41.464Z,9.33
2023-03-12T09:41:58.115Z,8.63
2023-03-12T09:48:19.541Z,8.53
2023-03-12T09:53:51.825Z,8.76
2023-03-12T10:00:48.019Z,9.30
2023-03-12T10:06:46.906Z,8.79
2023-03-12T10:14:08.369Z,7.86
2023-03-12T10:21:09.501Z,7.41
2023-03-12T10:28:16.876Z,7.81
2023-03-12T10:35:25.764Z,8.01
2023-03-12T10:42:31.092Z,8.93
2023-03-12T10:49:34.462Z,9.13
2023-03-12T10:55:22.010Z,9.00
2023-03-12T11:01:34.979Z,8.15
2023-03-12T11:08:36.406Z,8.14
2023-03-12T11:15:09.757Z,8.52
2023-03-12T11:28:41.068Z,8.27
2023-03-12T11:35:30.171Z,7.64
2023-03-12T11:42:45.521Z,7.42
2023-03-12T11:49:39.276Z,7.30
2023-03-12T11:57:00.778Z,7.84
2023-03-12T12:04:24.017Z,7.22
2023-03-12T12:11:23.579Z,7.21
2023-03-12T12:18:19.100Z,7.18
2023-03-12T12:24:49.820Z,8.06
2023-03-12T12:31:12.438Z,8.55
2023-03-12T12:38:06.080Z,9.41
2023-03-12T12:44:56.153Z,10.12
2023-03-12T12:51:51.477Z,10.67
2023-03-12T13:06:40.680Z,10.14
2023-03-12T13:13:50.552Z,9.15
2023-03-12T13:20:29.822Z,8.61
2023-03-12T13:27:30.836Z,8.37
2023-03-12T13:33:50.019Z,8.13
2023-03-12T13:40:30.843Z,8.34
2023-03-12T13:47:35.472Z,7.90
2023-03-12T13:53:57.483Z,7.24
2023-03-12T14:00:03.491Z,6.87
2023-03-12T14:06:53.290Z,6.89
2023-03-12T14:13:45.476Z,6.99
2023-03-12T14:20:58.376Z,7.11
2023-03-12T14:28:05.262Z,6.42
2023-03-12T14:34:53.079Z,6.27
2023-03-12T14:42:17.522Z,6.19
2023-03-12T14:49:11.549Z,6.22
2023-03-12T14:55:18.171Z,6.31
2023-03-12T15:02:04.712Z,6.45
2023-03-12T15:08:32.400Z,6.35
2023-03-12T15:15:08.667Z,6.02
2023-03-12T15:21:26.995Z,5.54
2023-03-12T15:27:51.494Z,5.25
2023-03-12T15:34:26.434Z,5.06
2023-03-12T15:39:59.086Z,4.95
2023-03-12T15:46:01.329Z,4.87
2023-03-12T15:52:20.114Z,4.89
2023-03-12T15:58:56.847Z,4.66
2023-03-12T16:05:23.297Z,4.53
2023-03-12T16:11:56.826Z,4.38
2023-03-12T16:18:59.793Z,4.17
2023-03-12T16:25:15.514Z,4.00
2023-03-12T16:31:37.938Z,3.90
2023-03-12T16:38:14.108Z,3.83
2023-03-12T16:44:33.120Z,3.79
2023-03-12T16:51:00.144Z,3.77
2023-03-12T16:57:43.631Z,3.77
2023-03-12T17:04:26.969Z,3.76
2023-03-12T17:10:05.286Z,3.74
2023-03-12T17:16:40.852Z,3.75
2023-03-12T17:23:02.360Z,3.71
2023-03-12T17:29:12.406Z,3.71
2023-03-12T17:35:27.639Z,3.66
2023-03-12T17:41:46.959Z,3.62
2023-03-12T17:47:46.472Z,3.59
2023-03-12T17:54:24.441Z,3.55
2023-03-12T18:00:48.384Z,3.48
2023-03-12T18:06:55.924Z,3.42
2023-03-12T18:13:10.447Z,3.40
2023-03-12T18:19:30.636Z,3.36
2023-03-12T18:25:12.134Z,3.32
2023-03-12T18:31:30.273Z,3.32
2023-03-12T18:37:52.289Z,3.32
2023-03-12T18:44:02.431Z,3.32
2023-03-12T18:49:49.933Z,3.30
2023-03-12T18:56:37.788Z,3.26
2023-03-12T19:03:10.411Z,3.23
2023-03-12T19:10:03.413Z,3.21
2023-03-12T19:16:52.095Z,3.19
2023-03-12T19:23:49.919Z,3.14
2023-03-12T19:30:33.132Z,3.13
2023-03-12T19:37:36.183Z,3.14
2023-03-12T19:44:39.351Z,3.15
2023-03-12T19:52:00.288Z,3.15
2023-03-12T19:58:52.304Z,3.18
2023-03-12T20:05:28.861Z,3.19
2023-03-12T20:11:36.481Z,3.22
2023-03-12T20:18:07.802Z,3.24
2023-03-12T20:25:13.457Z,3.28
2023-03-12T20:32:00.308Z,3.30
2023-03-12T20:39:10.891Z,3.30
2023-03-12T20:46:14.077Z,3.33
2023-03-12T20:53:08.157Z,3.37
2023-03-12T20:59:38.468Z,3.46
2023-03-12T21:06:41.093Z,3.49
2023-03-12T21:13:41.570Z,3.53
2023-03-12T21:20:12.669Z,3.56
2023-03-12T21:26:28.020Z,3.61
2023-03-12T21:32:53.632Z,3.64
2023-03-12T21:39:22.107Z,3.70
2023-03-12T21:45:36.095Z,3.79
2023-03-12T21:52:20.499Z,3.95
2023-03-12T21:59:24.720Z,4.07
2023-03-12T22:05:36.236Z,4.14
2023-03-12T22:11:40.958Z,4.20
2023-03-12T22:18:34.873Z,4.22
2023-03-12T22:25:37.432Z,4.22
2023-03-12T22:32:26.843Z,4.29
2023-03-12T22:38:35.902Z,4.30
2023-03-12T22:45:32.773Z,4.45
2023-03-12T22:52:26.148Z,4.45
2023-03-12T22:59:29.151Z,4.44
2023-03-12T23:06:15.298Z,4.44
2023-03-12T23:13:05.009Z,4.43
2023-03-12T23:20:09.579Z,4.41
2023-03-12T23:27:11.225Z,4.41
2023-03-12T23:33:55.921Z,4.42
2023-03-12T23:40:33.410Z,4.43
2023-03-12T23:47:25.723Z,4.49
2023-03-12T23:54:28.640Z,4.52
